createdAt,value
2017-11-23T00:02:13.648Z,42.83
2017-11-23T00:04:41.131Z,47.67
2017-11-23T00:07:08.595Z,53.67
2017-11-23T00:09:36.079Z,49.90
2017-11-23T00:12:03.539Z,48.10
2017-11-23T00:14:31.018Z,60.83
2017-11-23T00:16:58.502Z,41.53
2017-11-23T00:19:25.957Z,40.97
2017-11-23T00:21:53.434Z,34.03
2017-11-23T00:24:20.915Z,30.27
2017-11-23T00:26:48.402Z,29.03
2017-11-23T00:29:15.879Z,28.80
2017-11-23T00:31:43.360Z,27.77
2017-11-23T00:34:10.826Z,32.13
2017-11-23T00:36:38.287Z,36.37
2017-11-23T00:39:05.767Z,36.13
2017-11-23T00:41:33.232Z,32.60
2017-11-23T00:44:00.699Z,34.10
2017-11-23T00:46:28.177Z,32.47
2017-11-23T00:48:55.660Z,32.67
2017-11-23T00:51:23.130Z,35.30
2017-11-23T00:53:50.593Z,35.50
2017-11-23T00:56:18.077Z,36.60
2017-11-23T00:58:45.793Z,33.90
2017-11-23T01:01:13.254Z,34.80
2017-11-23T01:03:40.886Z,40.87
2017-11-23T01:06:08.370Z,35.67
2017-11-23T01:08:35.832Z,57.73
2017-11-23T01:11:03.328Z,68.23
2017-11-23T01:13:30.818Z,59.63
2017-11-23T01:15:58.303Z,45.13
2017-11-23T01:18:25.764Z,47.67
2017-11-23T01:20:53.250Z,45.20
2017-11-23T01:23:20.713Z,48.53
2017-11-23T01:25:48.212Z,43.90
2017-11-23T01:28:15.678Z,41.17
2017-11-23T01:30:43.160Z,42.80
2017-11-23T01:33:10.651Z,37.60
2017-11-23T01:35:38.129Z,35.40
2017-11-23T01:38:05.626Z,34.77
2017-11-23T01:40:33.083Z,33.00
2017-11-23T01:43:00.566Z,26.77
2017-11-23T01:45:28.058Z,29.97
2017-11-23T01:47:55.545Z,24.97
2017-11-23T01:50:23.043Z,26.27
2017-11-23T01:52:50.503Z,31.93
2017-11-23T01:55:18.009Z,30.63
2017-11-23T01:57:45.467Z,27.70
2017-11-23T02:00:12.931Z,27.20
2017-11-23T02:02:40.418Z,30.00
2017-11-23T02:05:07.886Z,28.07
2017-11-23T02:07:35.354Z,27.77
2017-11-23T02:10:02.835Z,32.00
2017-11-23T02:12:30.340Z,29.50
2017-11-23T02:14:57.819Z,32.00
2017-11-23T02:17:25.285Z,31.70
2017-11-23T02:19:52.779Z,34.50
2017-11-23T02:22:20.263Z,30.70
2017-11-23T02:24:47.731Z,28.77
2017-11-23T02:27:15.227Z,30.97
2017-11-23T02:29:42.682Z,34.50
2017-11-23T02:32:10.167Z,30.37
2017-11-23T02:34:37.664Z,31.60
2017-11-23T02:37:05.132Z,27.47
2017-11-23T02:39:32.942Z,27.67
2017-11-23T02:42:00.435Z,28.83
2017-11-23T02:44:27.908Z,29.07
2017-11-23T02:46:55.396Z,30.30
2017-11-23T02:49:22.851Z,27.63
2017-11-23T02:51:50.342Z,28.17
2017-11-23T02:54:17.832Z,30.10
2017-11-23T02:56:45.299Z,34.97
2017-11-23T02:59:12.783Z,33.90
2017-11-23T03:01:40.246Z,51.67
2017-11-23T03:04:07.738Z,43.10
2017-11-23T03:06:35.230Z,43.87
2017-11-23T03:09:02.728Z,46.33
2017-11-23T03:11:30.202Z,44.87
2017-11-23T03:13:57.675Z,48.47
2017-11-23T03:16:25.154Z,41.97
2017-11-23T03:18:52.621Z,39.53
2017-11-23T03:21:20.109Z,39.53
2017-11-23T03:23:47.567Z,34.77
2017-11-23T03:26:15.043Z,37.37
2017-11-23T03:28:42.526Z,36.53
2017-11-23T03:31:09.982Z,37.13
2017-11-23T03:33:37.454Z,41.50
2017-11-23T03:36:04.940Z,35.43
2017-11-23T03:38:32.402Z,41.30
2017-11-23T03:40:59.882Z,37.40
2017-11-23T03:43:27.388Z,40.07
2017-11-23T03:45:54.847Z,38.40
2017-11-23T03:48:22.330Z,39.30
2017-11-23T03:50:49.832Z,42.13
2017-11-23T03:53:17.301Z,46.40
2017-11-23T03:55:44.776Z,54.90
2017-11-23T03:58:12.273Z,53.70
2017-11-23T04:00:39.734Z,46.67
2017-11-23T04:03:07.218Z,39.73
2017-11-23T04:05:34.716Z,38.67
2017-11-23T04:08:02.206Z,37.20
2017-11-23T04:10:29.667Z,42.43
2017-11-23T04:12:57.160Z,65.73
2017-11-23T04:15:24.636Z,44.53
2017-11-23T04:17:52.130Z,43.73
2017-11-23T04:20:19.604Z,38.00
2017-11-23T04:22:47.098Z,32.73
2017-11-23T04:25:14.573Z,38.50
2017-11-23T04:27:42.026Z,36.23
2017-11-23T04:30:09.509Z,35.30
2017-11-23T04:32:37.021Z,31.70
2017-11-23T04:35:04.480Z,33.90
2017-11-23T04:37:31.944Z,34.47
2017-11-23T04:39:59.430Z,31.87
2017-11-23T04:42:26.917Z,32.83
2017-11-23T04:44:54.407Z,38.07
2017-11-23T04:47:21.858Z,35.60
2017-11-23T04:49:49.349Z,36.10
2017-11-23T04:52:16.851Z,39.40
2017-11-23T04:54:44.324Z,37.53
2017-11-23T04:57:11.814Z,38.37
2017-11-23T04:59:39.286Z,43.77
2017-11-23T05:02:07.096Z,43.57
2017-11-23T05:04:34.558Z,53.97
2017-11-23T05:07:02.027Z,47.63
2017-11-23T05:09:29.512Z,40.97
2017-11-23T05:11:56.994Z,37.13
2017-11-23T05:14:24.466Z,35.63
2017-11-23T05:16:52.094Z,37.80
2017-11-23T05:19:19.566Z,34.00
2017-11-23T05:21:47.051Z,33.53
2017-11-23T05:24:14.515Z,31.67
2017-11-23T05:26:42.008Z,35.50
2017-11-23T05:29:09.703Z,26.03
2017-11-23T05:31:37.203Z,26.73
2017-11-23T05:34:04.684Z,28.40
2017-11-23T05:36:32.175Z,30.67
2017-11-23T05:38:59.647Z,25.93
2017-11-23T05:41:27.134Z,27.10
2017-11-23T05:43:54.611Z,27.53
2017-11-23T05:46:22.087Z,24.70
2017-11-23T05:48:49.577Z,24.40
2017-11-23T05:51:17.036Z,28.50
2017-11-23T05:53:44.520Z,29.80
2017-11-23T05:56:11.979Z,25.90
2017-11-23T05:58:39.474Z,23.90
2017-11-23T06:01:06.943Z,29.17
2017-11-23T06:03:34.424Z,26.07
2017-11-23T06:06:01.923Z,24.70
2017-11-23T06:08:29.396Z,26.10
2017-11-23T06:10:57.309Z,34.00
2017-11-23T06:13:24.783Z,46.20
2017-11-23T06:15:52.282Z,33.27
2017-11-23T06:18:19.746Z,32.43
2017-11-23T06:20:47.233Z,30.60
2017-11-23T06:23:14.748Z,28.43
2017-11-23T06:25:42.202Z,35.53
2017-11-23T06:28:09.688Z,35.40
2017-11-23T06:30:37.148Z,38.47
2017-11-23T06:33:04.641Z,38.90
2017-11-23T06:35:32.107Z,41.90
2017-11-23T06:37:59.575Z,42.37
2017-11-23T06:40:27.079Z,43.10
2017-11-23T06:42:54.542Z,62.07
2017-11-23T06:45:22.045Z,44.03
2017-11-23T06:47:49.559Z,46.40
2017-11-23T06:50:17.023Z,47.60
2017-11-23T06:52:44.491Z,46.20
2017-11-23T06:55:11.974Z,73.03
2017-11-23T06:57:39.440Z,50.17
2017-11-23T07:00:06.940Z,52.77
2017-11-23T07:02:34.405Z,54.47
2017-11-23T07:05:01.896Z,51.27
2017-11-23T07:07:29.378Z,61.50
2017-11-23T07:09:56.865Z,62.30
2017-11-23T07:19:07.635Z,61.70
2017-11-23T07:21:35.247Z,70.97
2017-11-23T07:24:02.748Z,64.33
2017-11-23T07:26:30.225Z,78.23
2017-11-23T07:28:57.710Z,86.10
2017-11-23T07:31:25.179Z,105.70
2017-11-23T07:33:52.651Z,111.77
2017-11-23T07:36:20.155Z,68.73
2017-11-23T07:38:47.634Z,102.00
2017-11-23T07:41:15.115Z,77.47
2017-11-23T07:43:42.609Z,68.33
2017-11-23T07:46:10.093Z,68.63
2017-11-23T07:48:37.589Z,69.53
2017-11-23T07:51:05.062Z,74.17
2017-11-23T07:53:32.531Z,77.80
2017-11-23T07:56:00.019Z,82.47
2017-11-23T07:58:27.482Z,71.40
2017-11-23T08:00:54.995Z,66.27
2017-11-23T08:03:22.458Z,68.07
2017-11-23T08:05:49.919Z,86.60
2017-11-23T08:08:17.408Z,69.73
2017-11-23T08:10:44.877Z,72.07
2017-11-23T08:13:12.370Z,72.10
2017-11-23T08:15:39.834Z,75.57
2017-11-23T08:18:07.328Z,97.13
2017-11-23T08:20:34.823Z,93.00
2017-11-23T08:23:02.315Z,91.87
2017-11-23T08:25:29.961Z,85.50
2017-11-23T08:27:57.429Z,93.30
2017-11-23T08:30:24.904Z,85.73
2017-11-23T08:32:52.399Z,87.20
2017-11-23T08:35:19.882Z,70.50
2017-11-23T08:37:47.366Z,73.77
2017-11-23T08:40:14.858Z,83.17
2017-11-23T08:42:42.328Z,67.17
2017-11-23T08:45:09.811Z,58.00
2017-11-23T08:47:37.278Z,55.33
2017-11-23T08:50:04.767Z,55.50
2017-11-23T08:52:34.172Z,55.03
2017-11-23T08:55:01.646Z,42.90
2017-11-23T08:57:29.111Z,47.13
2017-11-23T08:59:56.578Z,41.30
2017-11-23T09:02:24.070Z,39.10
2017-11-23T09:04:51.558Z,31.07
2017-11-23T09:07:19.037Z,32.07
2017-11-23T09:09:46.523Z,30.67
2017-11-23T09:12:14.943Z,27.63
2017-11-23T09:14:42.408Z,28.10
2017-11-23T09:17:09.902Z,26.07
2017-11-23T09:19:37.359Z,25.00
2017-11-23T09:22:04.849Z,28.00
2017-11-23T09:24:32.310Z,30.27
2017-11-23T09:26:59.795Z,22.80
2017-11-23T09:29:27.275Z,22.93
2017-11-23T09:31:54.734Z,23.30
2017-11-23T09:34:22.560Z,17.50
2017-11-23T09:36:50.023Z,17.40
2017-11-23T09:39:17.491Z,16.77
2017-11-23T09:41:44.972Z,17.23
2017-11-23T09:44:12.435Z,14.37
2017-11-23T09:46:40.194Z,13.77
2017-11-23T09:49:07.651Z,13.77
2017-11-23T09:51:35.110Z,15.40
2017-11-23T09:54:02.604Z,12.40
2017-11-23T09:56:30.092Z,13.87
2017-11-23T09:58:57.590Z,13.80
2017-11-23T10:01:25.061Z,11.43
2017-11-23T10:03:52.541Z,9.60
2017-11-23T10:06:20.001Z,10.20
2017-11-23T10:08:47.488Z,8.77
2017-11-23T10:11:14.951Z,9.53
2017-11-23T10:13:42.440Z,8.60
2017-11-23T10:16:09.913Z,8.77
2017-11-23T10:18:37.399Z,8.07
2017-11-23T10:21:04.859Z,10.10
2017-11-23T10:23:32.343Z,9.73
2017-11-23T10:25:59.800Z,8.57
2017-11-23T10:28:27.451Z,8.83
2017-11-23T10:30:54.902Z,9.53
2017-11-23T10:33:22.362Z,10.43
2017-11-23T10:35:49.873Z,10.73
2017-11-23T10:38:17.335Z,13.93
2017-11-23T10:40:44.836Z,12.97
2017-11-23T10:43:12.323Z,9.70
2017-11-23T10:45:39.791Z,11.20
2017-11-23T10:48:07.254Z,11.57
2017-11-23T10:50:34.752Z,12.43
2017-11-23T10:53:02.404Z,12.10
2017-11-23T10:55:29.876Z,13.57
2017-11-23T10:57:57.356Z,11.90
2017-11-23T11:00:24.850Z,12.73
2017-11-23T11:02:52.333Z,14.23
2017-11-23T11:05:19.787Z,11.97
2017-11-23T11:07:47.270Z,12.60
2017-11-23T11:10:14.739Z,15.90
2017-11-23T11:12:42.212Z,15.97
2017-11-23T11:15:09.693Z,13.73
2017-11-23T11:17:37.457Z,16.00
2017-11-23T11:20:04.952Z,16.43
2017-11-23T11:22:32.413Z,17.60
2017-11-23T11:24:59.888Z,18.63
2017-11-23T11:27:27.366Z,18.10
2017-11-23T11:29:54.824Z,17.67
2017-11-23T11:32:22.303Z,16.80
2017-11-23T11:34:49.756Z,18.00
2017-11-23T11:37:17.241Z,17.40
2017-11-23T11:39:45.625Z,17.00
2017-11-23T11:42:13.107Z,15.63
2017-11-23T11:44:40.582Z,14.13
2017-11-23T11:47:08.049Z,15.60
2017-11-23T11:49:35.530Z,17.20
2017-11-23T11:52:03.005Z,18.40
2017-11-23T11:54:30.521Z,18.00
2017-11-23T11:56:58.027Z,17.30
2017-11-23T11:59:25.525Z,19.37
2017-11-23T12:01:52.989Z,17.50
2017-11-23T12:04:20.474Z,16.90
2017-11-23T12:06:47.962Z,16.47
2017-11-23T12:09:15.410Z,17.30
2017-11-23T12:11:42.890Z,15.67
2017-11-23T12:14:22.129Z,16.67
2017-11-23T12:17:01.506Z,15.40
2017-11-23T12:19:40.743Z,15.03
2017-11-23T12:22:19.989Z,15.80
2017-11-23T12:24:59.375Z,14.70
2017-11-23T12:27:26.847Z,16.92
2017-11-23T12:30:06.121Z,14.83
2017-11-23T12:32:33.619Z,13.50
2017-11-23T12:35:01.197Z,14.30
2017-11-23T12:37:28.681Z,13.37
2017-11-23T12:39:56.171Z,12.90
2017-11-23T12:42:23.699Z,14.93
2017-11-23T12:44:51.160Z,13.97
2017-11-23T12:47:18.782Z,14.70
2017-11-23T12:49:46.269Z,14.97
2017-11-23T12:52:13.742Z,14.97
2017-11-23T12:54:41.202Z,14.70
2017-11-23T12:57:08.686Z,16.37
2017-11-23T12:59:36.141Z,14.97
2017-11-23T13:02:03.604Z,14.33
2017-11-23T13:04:31.079Z,14.13
2017-11-23T13:06:58.530Z,15.53
2017-11-23T13:09:26.019Z,15.03
2017-11-23T13:11:53.494Z,16.30
2017-11-23T13:14:20.957Z,18.57
2017-11-23T13:16:48.470Z,21.10
2017-11-23T13:19:15.938Z,24.90
2017-11-23T13:21:43.394Z,27.83
2017-11-23T13:24:10.878Z,29.20
2017-11-23T13:26:38.341Z,30.37
2017-11-23T13:29:05.816Z,32.00
2017-11-23T13:31:33.266Z,32.97
2017-11-23T13:34:00.745Z,31.70
2017-11-23T13:36:28.210Z,30.40
2017-11-23T13:38:55.679Z,31.83
2017-11-23T13:41:23.171Z,31.80
2017-11-23T13:43:50.630Z,31.33
2017-11-23T13:46:18.118Z,33.73
2017-11-23T13:48:45.579Z,34.47
2017-11-23T13:51:13.035Z,38.33
2017-11-23T13:53:40.514Z,38.50
2017-11-23T13:56:07.976Z,36.40
2017-11-23T13:58:35.493Z,33.90
2017-11-23T14:01:02.979Z,31.97
2017-11-23T14:03:30.448Z,36.58
2017-11-23T14:05:57.939Z,33.00
2017-11-23T14:08:25.432Z,35.23
2017-11-23T14:10:52.914Z,32.77
2017-11-23T14:13:20.394Z,32.67
2017-11-23T14:15:47.874Z,34.30
2017-11-23T14:18:15.338Z,33.65
2017-11-23T14:20:42.822Z,30.53
2017-11-23T14:23:10.272Z,31.30
2017-11-23T14:25:37.757Z,28.73
2017-11-23T14:28:05.215Z,32.15
2017-11-23T14:30:32.695Z,29.70
2017-11-23T14:33:00.171Z,27.90
2017-11-23T14:35:27.627Z,26.77
2017-11-23T14:37:55.107Z,27.17
2017-11-23T14:40:22.561Z,28.33
2017-11-23T14:42:50.044Z,27.97
2017-11-23T14:45:17.503Z,27.50
2017-11-23T14:47:44.963Z,29.13
2017-11-23T14:50:12.716Z,29.20
2017-11-23T14:52:40.178Z,34.53
2017-11-23T14:55:07.637Z,36.90
2017-11-23T14:57:35.142Z,41.30
2017-11-23T15:00:02.607Z,42.00
2017-11-23T15:02:30.062Z,47.37
2017-11-23T15:04:58.485Z,47.20
2017-11-23T15:07:25.963Z,50.70
2017-11-23T15:09:53.437Z,51.87
2017-11-23T15:12:21.084Z,58.87
2017-11-23T15:14:48.622Z,59.57
2017-11-23T15:17:16.079Z,62.57
2017-11-23T15:19:43.567Z,65.17
2017-11-23T15:22:11.057Z,68.50
2017-11-23T15:24:38.541Z,70.17
2017-11-23T15:27:06.025Z,68.43
2017-11-23T15:29:33.487Z,63.40
2017-11-23T15:32:00.971Z,60.20
2017-11-23T15:34:28.457Z,60.10
2017-11-23T15:36:56.497Z,60.27
2017-11-23T15:39:23.971Z,55.07
2017-11-23T15:41:51.452Z,56.90
2017-11-23T15:44:18.932Z,55.47
2017-11-23T15:46:46.432Z,54.03
2017-11-23T15:49:13.889Z,48.87
2017-11-23T15:51:41.346Z,48.50
2017-11-23T15:54:08.830Z,47.20
2017-11-23T15:56:36.293Z,51.50
2017-11-23T15:59:03.758Z,52.63
2017-11-23T16:04:29.133Z,48.10
2017-11-23T16:06:56.591Z,46.27
2017-11-23T16:09:24.054Z,45.40
2017-11-23T16:11:51.561Z,50.60
2017-11-23T16:14:19.037Z,47.10
2017-11-23T16:16:46.498Z,50.90
2017-11-23T16:19:14.139Z,47.70
2017-11-23T16:21:41.684Z,82.88
2017-11-23T16:24:09.150Z,54.07
2017-11-23T16:26:36.633Z,53.87
2017-11-23T16:29:04.122Z,49.07
2017-11-23T16:31:31.597Z,62.50
2017-11-23T16:33:59.601Z,56.93
2017-11-23T16:36:27.898Z,53.37
2017-11-23T16:38:57.296Z,52.03
2017-11-23T16:41:24.770Z,51.40
2017-11-23T16:46:58.059Z,53.10
2017-11-23T16:49:31.167Z,75.27
2017-11-23T16:52:07.301Z,66.33
2017-11-23T16:54:40.314Z,60.97
2017-11-23T16:57:22.698Z,67.03
2017-11-23T17:00:01.109Z,62.97
2017-11-23T17:05:37.924Z,74.70
2017-11-23T17:08:20.833Z,72.87
2017-11-23T17:10:54.138Z,137.07
2017-11-23T17:13:27.126Z,88.00
2017-11-23T17:16:00.112Z,69.77
2017-11-23T17:18:48.330Z,60.20
2017-11-23T17:21:15.848Z,63.40
2017-11-23T17:23:43.334Z,61.20
2017-11-23T17:26:10.800Z,62.30
2017-11-23T17:28:38.319Z,66.90
2017-11-23T17:31:05.795Z,66.63
2017-11-23T17:33:33.269Z,64.93
2017-11-23T17:36:01.236Z,66.50
2017-11-23T17:38:28.714Z,66.33
2017-11-23T17:40:56.186Z,71.70
2017-11-23T17:43:23.693Z,86.23
2017-11-23T17:45:51.193Z,78.10
2017-11-23T17:48:18.742Z,62.37
2017-11-23T17:50:46.207Z,58.37
2017-11-23T17:53:13.945Z,61.37
2017-11-23T17:55:41.421Z,57.23
2017-11-23T17:58:08.887Z,68.70
2017-11-23T18:00:36.362Z,69.10
2017-11-23T18:03:04.067Z,62.57
2017-11-23T18:05:31.554Z,61.03
2017-11-23T18:07:59.047Z,59.90
2017-11-23T18:10:26.562Z,57.93
2017-11-23T18:12:54.148Z,58.37
2017-11-23T18:15:21.605Z,63.37
2017-11-23T18:17:49.079Z,66.27
2017-11-23T18:20:16.570Z,61.13
2017-11-23T18:22:44.059Z,64.93
2017-11-23T18:25:11.524Z,70.70
2017-11-23T18:27:38.993Z,81.57
2017-11-23T18:30:06.474Z,73.77
2017-11-23T18:32:33.955Z,77.70
2017-11-23T18:35:01.663Z,75.90
2017-11-23T18:37:29.163Z,71.60
2017-11-23T18:39:56.628Z,67.43
2017-11-23T18:42:24.100Z,77.30
2017-11-23T18:44:51.604Z,83.80
2017-11-23T18:47:19.207Z,82.20
2017-11-23T18:49:46.693Z,79.80
2017-11-23T18:52:14.163Z,78.13
2017-11-23T18:54:41.625Z,73.17
2017-11-23T18:57:09.112Z,73.50
2017-11-23T18:59:36.590Z,69.57
2017-11-23T19:02:04.069Z,62.33
2017-11-23T19:04:31.596Z,65.93
2017-11-23T19:06:59.086Z,65.90
2017-11-23T19:09:26.551Z,66.17
2017-11-23T19:11:54.021Z,64.97
2017-11-23T19:14:21.539Z,61.87
2017-11-23T19:16:49.031Z,62.40
2017-11-23T19:19:16.495Z,56.70
2017-11-23T19:21:44.003Z,55.93
2017-11-23T19:24:11.527Z,53.53
2017-11-23T19:26:39.003Z,70.17
2017-11-23T19:29:07.009Z,62.37
2017-11-23T19:31:35.034Z,91.90
2017-11-23T19:34:02.665Z,90.43
2017-11-23T19:36:30.477Z,87.50
2017-11-23T19:38:59.167Z,79.87
2017-11-23T19:41:27.172Z,78.37
2017-11-23T19:43:54.999Z,78.63
2017-11-23T19:46:22.503Z,75.60
2017-11-23T19:48:50.524Z,77.10
2017-11-23T19:51:18.451Z,77.17
2017-11-23T19:53:45.982Z,74.57
2017-11-23T19:56:13.486Z,65.53
2017-11-23T19:58:41.984Z,68.03
2017-11-23T20:01:09.461Z,74.07
2017-11-23T20:03:38.146Z,82.37
2017-11-23T20:06:05.618Z,82.37
2017-11-23T20:08:33.075Z,70.23
2017-11-23T20:11:00.573Z,66.47
2017-11-23T20:13:28.063Z,79.27
2017-11-23T20:15:55.523Z,80.30
2017-11-23T20:18:23.039Z,83.73
2017-11-23T20:20:50.529Z,107.20
2017-11-23T20:23:18.180Z,83.57
2017-11-23T20:25:46.201Z,79.57
2017-11-23T20:28:13.702Z,76.97
2017-11-23T20:30:41.953Z,70.40
2017-11-23T20:33:09.426Z,67.53
2017-11-23T20:35:36.942Z,70.87
2017-11-23T20:38:04.507Z,66.67
2017-11-23T20:40:32.114Z,70.10
2017-11-23T20:42:59.582Z,68.30
2017-11-23T20:45:27.053Z,70.57
2017-11-23T20:47:54.538Z,76.67
2017-11-23T20:50:22.034Z,78.00
2017-11-23T20:52:49.551Z,79.87
2017-11-23T20:55:17.018Z,82.53
2017-11-23T20:57:44.519Z,83.93
2017-11-23T21:00:11.983Z,78.60
2017-11-23T21:02:39.463Z,73.87
2017-11-23T21:05:06.968Z,79.67
2017-11-23T21:07:34.440Z,79.50
2017-11-23T21:10:01.951Z,72.03
2017-11-23T21:12:29.675Z,82.13
2017-11-23T21:14:57.135Z,79.83
2017-11-23T21:17:24.615Z,71.47
2017-11-23T21:19:52.083Z,70.97
2017-11-23T21:22:19.546Z,74.00
2017-11-23T21:24:47.036Z,81.37
2017-11-23T21:27:14.511Z,74.37
2017-11-23T21:29:42.000Z,75.00
2017-11-23T21:32:09.481Z,71.73
2017-11-23T21:34:36.968Z,75.30
2017-11-23T21:37:04.439Z,72.07
2017-11-23T21:39:31.934Z,72.97
2017-11-23T21:41:59.402Z,68.00
2017-11-23T21:44:26.867Z,67.60
2017-11-23T21:46:54.354Z,70.47
2017-11-23T21:49:21.838Z,67.70
2017-11-23T21:51:49.299Z,70.30
2017-11-23T21:54:16.800Z,77.33
2017-11-23T21:56:44.267Z,70.83
2017-11-23T21:59:11.762Z,70.00
2017-11-23T22:01:39.251Z,67.57
2017-11-23T22:04:06.711Z,58.60
2017-11-23T22:06:34.193Z,63.30
2017-11-23T22:09:01.652Z,59.90
2017-11-23T22:11:29.136Z,73.17
2017-11-23T22:13:56.622Z,70.37
2017-11-23T22:16:24.089Z,73.07
2017-11-23T22:18:51.810Z,76.30
2017-11-23T22:21:19.271Z,71.03
2017-11-23T22:23:46.736Z,73.40
2017-11-23T22:26:14.216Z,73.20
2017-11-23T22:28:41.680Z,67.63
2017-11-23T22:31:09.178Z,58.47
2017-11-23T22:33:36.649Z,54.77
2017-11-23T22:36:04.107Z,52.37
2017-11-23T22:38:31.608Z,52.17
2017-11-23T22:40:59.062Z,51.07
2017-11-23T22:43:26.544Z,51.40
2017-11-23T22:45:53.998Z,48.97
2017-11-23T22:48:21.472Z,47.60
2017-11-23T22:50:48.959Z,45.17
2017-11-23T22:53:16.444Z,40.23
2017-11-23T22:55:43.918Z,41.93
2017-11-23T22:58:11.406Z,43.77
2017-11-23T23:00:38.876Z,40.63
2017-11-23T23:03:06.371Z,42.97
2017-11-23T23:05:33.871Z,40.77
2017-11-23T23:08:01.338Z,40.97
2017-11-23T23:10:28.792Z,42.83
2017-11-23T23:12:56.281Z,47.10
2017-11-23T23:15:23.767Z,41.67
2017-11-23T23:17:51.245Z,44.03
2017-11-23T23:20:18.707Z,48.67
2017-11-23T23:22:46.178Z,49.37
2017-11-23T23:25:13.635Z,46.97
2017-11-23T23:27:41.092Z,44.33
2017-11-23T23:30:08.881Z,46.67
2017-11-23T23:32:36.359Z,49.27
2017-11-23T23:35:03.821Z,50.17
2017-11-23T23:37:31.315Z,48.63
2017-11-23T23:39:58.775Z,51.67
2017-11-23T23:42:26.255Z,50.07
2017-11-23T23:44:53.735Z,51.17
2017-11-23T23:47:21.221Z,48.20
2017-11-23T23:49:48.680Z,50.30
2017-11-23T23:52:16.175Z,51.63
2017-11-23T23:54:43.644Z,54.53
2017-11-23T23:57:11.128Z,53.27
2017-11-23T23:59:38.611Z,57.77
